Flight Track Log - Related Links

Times and Time Zones

All times are in EDT time to prevent confusion due to time zone crossing. See the SKW6528 flight status page for this flight to view local times or setup timezone preferences in your user account.

Time Position Orientation Groundspeed Altitude Reporting Facility
EDT Latitude Longitude Course Direction KTS MPH feet Rate Location/Type
Sat 10:38:15 PM 33.4333 -112.0500 270° West 152 175 2,600  Level Phoenix TRACON
Sat 10:38:44 PM 33.4200 -112.0692 230° Southwest 164 189 3,500 2,067 Climbing Albuquerque Center
Sat 10:39:45 PM 33.3992 -112.1408 251° West 222 255 5,700 2,380 Climbing Albuquerque Center
Sat 10:40:00 PM 33.4333 -112.3456 270° West  Level FlightAware Approximate
Sat 10:40:45 PM 33.3922 -112.2297 265° West 277 319 8,300  Level Albuquerque Center
Sat 10:41:00 PM 33.4365 -112.4607 273° West  Level FlightAware Approximate
Sat 10:41:46 PM 33.4031 -112.3269 278° West 295 339 10,700  Level Albuquerque Center
Sat 10:42:00 PM 33.4412 -112.5757 273° West  Level FlightAware Approximate
Sat 10:42:47 PM 33.4144 -112.4386 277° West 333 383 13,300  Level Albuquerque Center
Sat 10:43:00 PM 33.4458 -112.6908 273° West  Level FlightAware Approximate
Sat 10:43:48 PM 33.4264 -112.5533 277° West 347 399 15,700  Level Albuquerque Center
Sat 10:44:48 PM 33.4389 -112.6822 277° West 362 417 17,800 2,479 Climbing Albuquerque Center
Sat 10:45:49 PM 33.4531 -112.8044 278° West 370 426 20,700 2,852 Climbing Albuquerque Center
Sat 10:46:50 PM 33.4872 -112.9142 291° West 356 410 23,600 1,636 Climbing Albuquerque Center
Sat 10:47:50 PM 33.5258 -113.0253 293° West 358 412 24,000 1,488 Climbing Albuquerque Center
Sat 10:48:51 PM 33.5686 -113.1439 293° West 382 440 26,600 1,967 Climbing Albuquerque Center
Sat 10:49:52 PM 33.6094 -113.2575 293° West 376 433 28,000 1,240 Climbing Albuquerque Center
Sat 10:50:52 PM 33.6494 -113.3750 292° West 387 445 29,100 992 Climbing Albuquerque Center
Sat 10:51:53 PM 33.6936 -113.4981 293° West 397 457 30,000 443 Climbing Albuquerque Center
Sat 10:52:54 PM 33.7392 -113.6269 293° West 412 474 30,000  Level Albuquerque Center
Sat 10:53:54 PM 33.7864 -113.7631 293° West 434 499 30,000  Level Albuquerque Center
Sat 10:54:55 PM 33.8286 -113.8958 291° West 428 493 30,000  Level Albuquerque Center
Sat 10:55:56 PM 33.8489 -114.0347 280° West 423 487 30,000  Level Albuquerque Center
Sat 10:56:56 PM 33.8722 -114.1708 282° West 420 483 30,000  Level Albuquerque Center
Sat 10:57:57 PM 33.8925 -114.3108 280° West 419 482 30,000  Level Albuquerque Center
Sat 10:58:23 PM 33.9075 -114.3975 282° West 419 482 30,000  Level Los Angeles Center
Sat 10:59:25 PM 33.9297 -114.5356 281° West 422 486 30,000  Level Los Angeles Center
Sat 11:00:26 PM 33.9500 -114.6711 280° West 416 479 30,000  Level Los Angeles Center
Sat 11:01:27 PM 33.9708 -114.8094 280° West 419 482 30,000  Level Los Angeles Center
Sat 11:02:28 PM 33.9914 -114.9472 280° West 420 483 30,000  Level Los Angeles Center
Sat 11:03:30 PM 34.0133 -115.0828 281° West 415 478 30,000  Level Los Angeles Center
Sat 11:04:31 PM 34.0336 -115.2203 280° West 418 481 30,000  Level Los Angeles Center
Sat 11:05:32 PM 34.0544 -115.3567 280° West 416 479 30,000  Level Los Angeles Center
Sat 11:06:33 PM 34.0731 -115.4919 279° West 413 475 30,000  Level Los Angeles Center
Sat 11:07:34 PM 34.0969 -115.6564 280° West 417 480 30,000  Level Los Angeles Center
Sat 11:08:36 PM 34.1100 -115.7917 277° West 413 475 30,000  Level Los Angeles Center
Sat 11:09:37 PM 34.0894 -115.9264 260° West 410 472 30,000  Level Los Angeles Center
Sat 11:10:38 PM 34.0700 -116.0597 260° West 407 468 30,000  Level Los Angeles Center
Sat 11:11:39 PM 34.0503 -116.1956 260° West 411 473 30,000  Level Los Angeles Center
Sat 11:12:41 PM 34.0297 -116.3286 259° West 408 470 30,000  Level Los Angeles Center
Sat 11:13:42 PM 34.0094 -116.4611 260° West 404 465 30,000 -393 Level Los Angeles Center
Sat 11:14:43 PM 33.9967 -116.5953 263° West 405 466 29,200 -2,213 Descending Los Angeles Center
Sat 11:15:44 PM 33.9872 -116.7272 265° West 400 460 25,500 -4,098 Descending Los Angeles Center
Sat 11:16:46 PM 33.9742 -116.8864 264° West 400 460 20,800 -4,255 Descending Los Angeles Center
Sat 11:17:34 PM 33.9667 -116.9833 265° West 381 438 17,700 -2,111 Descending Southern California TRACON
Sat 11:18:34 PM 33.9500 -117.1167 261° West 335 386 17,000 -667 Descending Southern California TRACON
Sat 11:19:40 PM 33.9500 -117.2333 270° West 330 380 16,300 -1,000 Descending Southern California TRACON
Sat 11:20:34 PM 33.9333 -117.3333 259° West 335 386 15,000 -1,400 Descending Southern California TRACON
Sat 11:21:40 PM 33.9500 -117.4500 280° West 330 380 13,500 -1,370 Descending Southern California TRACON
Sat 11:22:41 PM 34.0000 -117.5500 301° West 320 368 12,100 -1,339 Descending Southern California TRACON
Sat 11:23:41 PM 34.0167 -117.6500 281° West 329 379 10,800 -1,250 Descending Southern California TRACON
Sat 11:24:41 PM 34.0000 -117.7333 256° West 261 300 9,600 -1,200 Descending Southern California TRACON
Sat 11:25:41 PM 34.0000 -117.8333 270° West 268 308 8,400 -1,150 Descending Southern California TRACON
Sat 11:26:41 PM 33.9833 -117.9167 256° West 269 310 7,300 -991 Descending Southern California TRACON
Sat 11:27:36 PM 33.9833 -117.9833 270° West 235 270 6,500 -991 Descending Southern California TRACON
Sat 11:28:36 PM 33.9667 -118.0667 256° West 222 255 5,400 -1,100 Descending Southern California TRACON
Sat 11:29:36 PM 33.9667 -118.1333 270° West 203 234 4,300 -988 Descending Southern California TRACON
Sat 11:30:01 PM 33.9614 -118.1497 249° West 214 246 4,000 -966 Descending Los Angeles Center
Sat 11:31:03 PM 33.9556 -118.2125 264° West 200 230 2,900 -1,122 Descending Los Angeles Center
Sat 11:32:04 PM 33.9478 -118.2883 263° West 193 222 1,700 -1,180 Descending Los Angeles Center

Login

Don't have an account? Register now (free) for customized features, flight alerts, and more!